Clover, South Carolina
Current Conditions -  °F | °C
As of 10:54 PM on Monday 22 Dec 2014 (Local Time) from KAKH Reporting Station
Light Snow Light Snow  
Wind Chill: 32°   Ceiling: 500
Heat Index: 38°   Visibility: 7mi
Dew Point: 35°   Wind: 8mph
Humidity: 89%   Direction: 50°NE
Pressure: 30.01"   Gusts: NA
Location:  35.11°N, 81.23°W
Report Text: KAKH 230354Z AUTO 05007KT 7SM -SN OVC005 03/02 A3001 RMK AO2 RAE05SNB05 CIG 003V009 SLP168 P0003 T00330017
Loading
Personal Weather Stations






























Interactive Weather Map New forecast layout! Learn more

10-Day Weather Forecast

Advertisements
Track Severe Weather on mobile